sensor_id;sensor_type;location;lat;lon;timestamp;pressure;altitude;pressure_sealevel;temperature;humidity
49311;BME280;35177;45.900;5.946;2023-07-29T00:00:32;97326.09;;;19.10;78.95
49311;BME280;35177;45.900;5.946;2023-07-29T00:02:58;97335.38;;;19.15;79.17
49311;BME280;35177;45.900;5.946;2023-07-29T00:05:23;97335.53;;;19.14;79.92
49311;BME280;35177;45.900;5.946;2023-07-29T00:07:48;97329.75;;;19.01;80.21
49311;BME280;35177;45.900;5.946;2023-07-29T00:10:14;97327.13;;;19.09;80.14
49311;BME280;35177;45.900;5.946;2023-07-29T00:12:39;97330.66;;;19.17;79.68
49311;BME280;35177;45.900;5.946;2023-07-29T00:15:05;97319.09;;;19.17;79.49
49311;BME280;35177;45.900;5.946;2023-07-29T00:17:31;97325.78;;;19.13;79.33
49311;BME280;35177;45.900;5.946;2023-07-29T00:19:56;97333.22;;;19.19;79.22
49311;BME280;35177;45.900;5.946;2023-07-29T00:22:21;97320.00;;;19.25;78.87
49311;BME280;35177;45.900;5.946;2023-07-29T00:24:52;97318.59;;;19.21;79.90
49311;BME280;35177;45.900;5.946;2023-07-29T00:27:19;97325.34;;;19.25;79.48
49311;BME280;35177;45.900;5.946;2023-07-29T00:29:45;97330.28;;;19.38;79.04
49311;BME280;35177;45.900;5.946;2023-07-29T00:32:10;97333.13;;;19.36;79.30
49311;BME280;35177;45.900;5.946;2023-07-29T00:34:36;97331.59;;;19.34;79.75
49311;BME280;35177;45.900;5.946;2023-07-29T00:37:01;97318.59;;;19.21;80.09
49311;BME280;35177;45.900;5.946;2023-07-29T00:39:26;97326.47;;;19.15;80.69
49311;BME280;35177;45.900;5.946;2023-07-29T00:41:52;97330.53;;;19.19;80.98
49311;BME280;35177;45.900;5.946;2023-07-29T00:44:17;97334.13;;;19.35;79.60
49311;BME280;35177;45.900;5.946;2023-07-29T00:46:45;97325.94;;;19.37;79.91
49311;BME280;35177;45.900;5.946;2023-07-29T00:49:12;97318.84;;;19.28;80.52
49311;BME280;35177;45.900;5.946;2023-07-29T00:51:37;97320.56;;;19.37;79.54
49311;BME280;35177;45.900;5.946;2023-07-29T00:54:03;97316.56;;;19.49;78.87
49311;BME280;35177;45.900;5.946;2023-07-29T00:56:28;97317.94;;;19.53;78.68
49311;BME280;35177;45.900;5.946;2023-07-29T00:58:54;97320.31;;;19.64;79.14
49311;BME280;35177;45.900;5.946;2023-07-29T01:01:27;97326.75;;;19.95;77.17
49311;BME280;35177;45.900;5.946;2023-07-29T01:03:52;97321.03;;;19.98;77.28
49311;BME280;35177;45.900;5.946;2023-07-29T01:06:22;97321.09;;;20.39;74.83
49311;BME280;35177;45.900;5.946;2023-07-29T01:09:09;97325.09;;;20.67;72.71
49311;BME280;35177;45.900;5.946;2023-07-29T01:12:03;97322.31;;;21.07;70.64
49311;BME280;35177;45.900;5.946;2023-07-29T01:17:15;97321.81;;;21.12;69.62
49311;BME280;35177;45.900;5.946;2023-07-29T01:20:03;97327.19;;;21.04;69.87
49311;BME280;35177;45.900;5.946;2023-07-29T01:22:34;97335.44;;;21.10;69.76
49311;BME280;35177;45.900;5.946;2023-07-29T01:24:59;97330.03;;;21.18;69.46
49311;BME280;35177;45.900;5.946;2023-07-29T01:27:25;97329.41;;;21.08;70.29
49311;BME280;35177;45.900;5.946;2023-07-29T01:29:52;97335.03;;;21.29;68.82
49311;BME280;35177;45.900;5.946;2023-07-29T01:32:45;97333.53;;;21.27;69.86
49311;BME280;35177;45.900;5.946;2023-07-29T01:35:24;97333.91;;;21.55;67.61
49311;BME280;35177;45.900;5.946;2023-07-29T01:37:55;97334.63;;;21.49;68.05
49311;BME280;35177;45.900;5.946;2023-07-29T01:40:23;97335.41;;;21.57;67.01
49311;BME280;35177;45.900;5.946;2023-07-29T01:42:50;97339.97;;;21.57;67.04
49311;BME280;35177;45.900;5.946;2023-07-29T01:45:16;97342.53;;;21.42;69.18
49311;BME280;35177;45.900;5.946;2023-07-29T01:47:41;97333.16;;;21.38;68.27
49311;BME280;35177;45.900;5.946;2023-07-29T01:50:07;97341.78;;;21.25;69.62
49311;BME280;35177;45.900;5.946;2023-07-29T01:52:33;97350.59;;;21.50;67.89
49311;BME280;35177;45.900;5.946;2023-07-29T01:54:59;97339.84;;;21.42;68.32
49311;BME280;35177;45.900;5.946;2023-07-29T01:57:24;97334.25;;;21.52;67.96
49311;BME280;35177;45.900;5.946;2023-07-29T01:59:49;97344.75;;;21.47;68.68
49311;BME280;35177;45.900;5.946;2023-07-29T02:02:15;97343.31;;;21.28;69.06
49311;BME280;35177;45.900;5.946;2023-07-29T02:04:40;97338.41;;;21.31;68.88
49311;BME280;35177;45.900;5.946;2023-07-29T02:07:06;97347.47;;;21.69;66.66
49311;BME280;35177;45.900;5.946;2023-07-29T02:09:31;97344.13;;;21.67;66.25
49311;BME280;35177;45.900;5.946;2023-07-29T02:11:57;97345.09;;;21.74;65.78
49311;BME280;35177;45.900;5.946;2023-07-29T02:14:22;97353.34;;;21.73;65.94
49311;BME280;35177;45.900;5.946;2023-07-29T02:16:48;97343.91;;;21.77;65.09
49311;BME280;35177;45.900;5.946;2023-07-29T02:19:14;97347.25;;;21.87;65.11
49311;BME280;35177;45.900;5.946;2023-07-29T02:21:40;97349.72;;;21.96;64.95
49311;BME280;35177;45.900;5.946;2023-07-29T02:24:05;97354.63;;;21.93;64.73
49311;BME280;35177;45.900;5.946;2023-07-29T02:26:30;97346.53;;;21.93;64.55
49311;BME280;35177;45.900;5.946;2023-07-29T02:28:56;97348.88;;;21.96;64.37
49311;BME280;35177;45.900;5.946;2023-07-29T02:31:23;97351.56;;;21.96;64.06
49311;BME280;35177;45.900;5.946;2023-07-29T02:33:49;97353.41;;;21.95;64.06
49311;BME280;35177;45.900;5.946;2023-07-29T02:36:15;97347.53;;;21.92;64.35
49311;BME280;35177;45.900;5.946;2023-07-29T02:38:40;97347.00;;;21.96;64.13
49311;BME280;35177;45.900;5.946;2023-07-29T02:41:06;97345.09;;;22.05;63.48
49311;BME280;35177;45.900;5.946;2023-07-29T02:43:34;97344.94;;;22.06;62.98
49311;BME280;35177;45.900;5.946;2023-07-29T02:45:59;97343.13;;;22.22;61.68
49311;BME280;35177;45.900;5.946;2023-07-29T02:48:25;97334.19;;;22.21;61.81
49311;BME280;35177;45.900;5.946;2023-07-29T02:50:50;97323.06;;;22.24;61.21
49311;BME280;35177;45.900;5.946;2023-07-29T02:53:16;97318.09;;;22.36;60.73
49311;BME280;35177;45.900;5.946;2023-07-29T02:55:42;97313.59;;;22.28;61.07
49311;BME280;35177;45.900;5.946;2023-07-29T02:58:07;97313.03;;;22.33;60.87
49311;BME280;35177;45.900;5.946;2023-07-29T03:00:33;97318.56;;;22.39;60.47
49311;BME280;35177;45.900;5.946;2023-07-29T03:02:59;97322.34;;;22.30;60.79
49311;BME280;35177;45.900;5.946;2023-07-29T03:05:26;97321.56;;;21.99;62.43
49311;BME280;35177;45.900;5.946;2023-07-29T03:07:52;97320.19;;;22.03;61.52
49311;BME280;35177;45.900;5.946;2023-07-29T03:10:18;97318.81;;;22.07;61.56
49311;BME280;35177;45.900;5.946;2023-07-29T03:12:43;97318.88;;;21.99;62.67
49311;BME280;35177;45.900;5.946;2023-07-29T03:15:09;97317.84;;;21.38;66.21
49311;BME280;35177;45.900;5.946;2023-07-29T03:17:34;97317.81;;;20.92;68.41
49311;BME280;35177;45.900;5.946;2023-07-29T03:19:59;97314.31;;;20.75;69.03
49311;BME280;35177;45.900;5.946;2023-07-29T03:22:25;97333.13;;;20.75;68.97
49311;BME280;35177;45.900;5.946;2023-07-29T03:24:50;97332.63;;;20.79;69.15
49311;BME280;35177;45.900;5.946;2023-07-29T03:27:16;97336.47;;;20.77;69.28
49311;BME280;35177;45.900;5.946;2023-07-29T03:29:41;97329.97;;;20.71;69.15
49311;BME280;35177;45.900;5.946;2023-07-29T03:32:07;97330.78;;;20.80;68.92
49311;BME280;35177;45.900;5.946;2023-07-29T03:34:33;97334.50;;;20.71;69.39
49311;BME280;35177;45.900;5.946;2023-07-29T03:37:00;97331.25;;;20.92;68.08
49311;BME280;35177;45.900;5.946;2023-07-29T03:39:26;97334.16;;;20.74;69.42
49311;BME280;35177;45.900;5.946;2023-07-29T03:41:51;97322.94;;;20.38;70.50
49311;BME280;35177;45.900;5.946;2023-07-29T03:44:16;97321.03;;;20.15;71.40
49311;BME280;35177;45.900;5.946;2023-07-29T03:46:43;97315.53;;;20.40;70.44
49311;BME280;35177;45.900;5.946;2023-07-29T03:49:09;97316.34;;;20.08;71.81
49311;BME280;35177;45.900;5.946;2023-07-29T03:51:34;97312.94;;;19.82;72.95
49311;BME280;35177;45.900;5.946;2023-07-29T03:53:59;97314.25;;;19.70;73.83
49311;BME280;35177;45.900;5.946;2023-07-29T03:56:25;97323.97;;;19.55;74.63
49311;BME280;35177;45.900;5.946;2023-07-29T03:58:52;97329.25;;;19.81;72.94
49311;BME280;35177;45.900;5.946;2023-07-29T04:01:18;97336.00;;;20.17;71.47
49311;BME280;35177;45.900;5.946;2023-07-29T04:03:45;97334.88;;;19.54;74.60
49311;BME280;35177;45.900;5.946;2023-07-29T04:06:11;97336.22;;;19.58;73.67
49311;BME280;35177;45.900;5.946;2023-07-29T04:08:37;97327.34;;;18.90;76.18
49311;BME280;35177;45.900;5.946;2023-07-29T04:11:02;97331.38;;;18.86;77.70
49311;BME280;35177;45.900;5.946;2023-07-29T04:13:28;97330.94;;;18.72;79.88
49311;BME280;35177;45.900;5.946;2023-07-29T04:15:53;97337.00;;;18.75;79.26
49311;BME280;35177;45.900;5.946;2023-07-29T04:18:19;97346.38;;;19.04;77.62
49311;BME280;35177;45.900;5.946;2023-07-29T04:20:44;97347.19;;;19.30;76.05
49311;BME280;35177;45.900;5.946;2023-07-29T04:23:10;97351.44;;;19.41;75.21
49311;BME280;35177;45.900;5.946;2023-07-29T04:25:35;97354.78;;;19.09;77.46
49311;BME280;35177;45.900;5.946;2023-07-29T04:28:01;97354.38;;;18.96;77.78
49311;BME280;35177;45.900;5.946;2023-07-29T04:30:28;97359.97;;;19.11;77.25
49311;BME280;35177;45.900;5.946;2023-07-29T04:32:54;97365.63;;;19.00;77.54
49311;BME280;35177;45.900;5.946;2023-07-29T04:35:19;97361.22;;;19.24;76.09
49311;BME280;35177;45.900;5.946;2023-07-29T04:37:45;97359.69;;;19.14;76.44
49311;BME280;35177;45.900;5.946;2023-07-29T04:40:10;97354.53;;;18.95;77.06
49311;BME280;35177;45.900;5.946;2023-07-29T04:42:36;97351.44;;;19.41;75.47
49311;BME280;35177;45.900;5.946;2023-07-29T04:45:02;97353.91;;;19.76;73.68
49311;BME280;35177;45.900;5.946;2023-07-29T04:47:27;97349.75;;;20.06;72.50
49311;BME280;35177;45.900;5.946;2023-07-29T04:49:53;97354.69;;;20.51;70.62
49311;BME280;35177;45.900;5.946;2023-07-29T04:52:18;97359.31;;;19.92;74.51
49311;BME280;35177;45.900;5.946;2023-07-29T04:54:44;97353.47;;;19.47;77.64
49311;BME280;35177;45.900;5.946;2023-07-29T04:57:10;97348.03;;;19.05;79.77
49311;BME280;35177;45.900;5.946;2023-07-29T04:59:37;97341.56;;;19.50;78.00
49311;BME280;35177;45.900;5.946;2023-07-29T05:02:02;97343.88;;;19.36;78.71
49311;BME280;35177;45.900;5.946;2023-07-29T05:04:28;97341.69;;;19.40;79.01
49311;BME280;35177;45.900;5.946;2023-07-29T05:06:53;97344.09;;;19.51;78.49
49311;BME280;35177;45.900;5.946;2023-07-29T05:09:19;97347.69;;;19.76;78.00
49311;BME280;35177;45.900;5.946;2023-07-29T05:11:48;97351.91;;;19.94;76.24
49311;BME280;35177;45.900;5.946;2023-07-29T05:14:14;97336.06;;;19.59;76.53
49311;BME280;35177;45.900;5.946;2023-07-29T05:16:40;97340.41;;;19.52;76.44
49311;BME280;35177;45.900;5.946;2023-07-29T05:19:05;97345.47;;;19.63;76.36
49311;BME280;35177;45.900;5.946;2023-07-29T05:21:31;97339.16;;;19.96;74.45
49311;BME280;35177;45.900;5.946;2023-07-29T05:23:57;97335.22;;;20.33;73.23
49311;BME280;35177;45.900;5.946;2023-07-29T05:26:22;97341.41;;;20.49;73.00
49311;BME280;35177;45.900;5.946;2023-07-29T05:28:48;97340.38;;;20.66;73.36
49311;BME280;35177;45.900;5.946;2023-07-29T05:31:13;97337.00;;;20.72;72.38
49311;BME280;35177;45.900;5.946;2023-07-29T05:33:39;97336.47;;;20.85;71.56
49311;BME280;35177;45.900;5.946;2023-07-29T05:36:05;97344.22;;;20.88;71.93
49311;BME280;35177;45.900;5.946;2023-07-29T05:38:30;97339.13;;;21.17;71.38
49311;BME280;35177;45.900;5.946;2023-07-29T05:40:56;97333.25;;;21.14;70.95
49311;BME280;35177;45.900;5.946;2023-07-29T05:43:23;97331.03;;;21.17;69.76
49311;BME280;35177;45.900;5.946;2023-07-29T05:45:49;97339.59;;;21.29;69.74
49311;BME280;35177;45.900;5.946;2023-07-29T05:48:14;97349.28;;;21.38;70.14
49311;BME280;35177;45.900;5.946;2023-07-29T05:50:40;97359.69;;;21.49;69.20
49311;BME280;35177;45.900;5.946;2023-07-29T05:53:05;97357.69;;;21.43;69.28
49311;BME280;35177;45.900;5.946;2023-07-29T05:55:30;97355.84;;;21.43;69.37
49311;BME280;35177;45.900;5.946;2023-07-29T05:57:56;97357.38;;;21.38;68.55
49311;BME280;35177;45.900;5.946;2023-07-29T06:00:22;97359.41;;;21.36;68.77
49311;BME280;35177;45.900;5.946;2023-07-29T06:02:48;97362.63;;;21.31;68.67
49311;BME280;35177;45.900;5.946;2023-07-29T06:05:13;97359.59;;;21.34;68.57
49311;BME280;35177;45.900;5.946;2023-07-29T06:07:39;97361.63;;;21.32;71.04
49311;BME280;35177;45.900;5.946;2023-07-29T06:10:09;97358.22;;;21.30;70.66
49311;BME280;35177;45.900;5.946;2023-07-29T06:12:37;97363.63;;;21.30;70.61
49311;BME280;35177;45.900;5.946;2023-07-29T06:15:02;97374.44;;;21.22;70.64
49311;BME280;35177;45.900;5.946;2023-07-29T06:17:28;97373.75;;;21.20;70.49
49311;BME280;35177;45.900;5.946;2023-07-29T06:19:54;97371.69;;;21.30;70.42
49311;BME280;35177;45.900;5.946;2023-07-29T06:22:19;97373.31;;;21.48;69.26
49311;BME280;35177;45.900;5.946;2023-07-29T06:24:45;97377.78;;;21.63;69.08
49311;BME280;35177;45.900;5.946;2023-07-29T06:27:10;97374.13;;;21.56;71.16
49311;BME280;35177;45.900;5.946;2023-07-29T06:29:36;97366.41;;;21.53;71.38
49311;BME280;35177;45.900;5.946;2023-07-29T06:32:01;97380.88;;;21.60;70.97
49311;BME280;35177;45.900;5.946;2023-07-29T06:34:27;97384.44;;;21.44;70.95
49311;BME280;35177;45.900;5.946;2023-07-29T06:36:52;97381.78;;;21.36;72.03
49311;BME280;35177;45.900;5.946;2023-07-29T06:39:17;97383.44;;;21.37;72.71
49311;BME280;35177;45.900;5.946;2023-07-29T06:41:43;97387.28;;;21.51;72.52
49311;BME280;35177;45.900;5.946;2023-07-29T06:44:08;97385.06;;;21.63;72.23
49311;BME280;35177;45.900;5.946;2023-07-29T06:46:34;97383.28;;;21.78;70.85
49311;BME280;35177;45.900;5.946;2023-07-29T06:48:59;97383.94;;;21.80;71.11
49311;BME280;35177;45.900;5.946;2023-07-29T06:51:24;97386.00;;;21.86;71.21
49311;BME280;35177;45.900;5.946;2023-07-29T06:53:50;97387.94;;;22.00;70.23
49311;BME280;35177;45.900;5.946;2023-07-29T06:56:15;97385.59;;;22.20;69.78
49311;BME280;35177;45.900;5.946;2023-07-29T06:58:41;97382.13;;;22.34;68.81
49311;BME280;35177;45.900;5.946;2023-07-29T07:01:06;97382.69;;;22.29;64.24
49311;BME280;35177;45.900;5.946;2023-07-29T07:03:32;97374.28;;;22.24;64.60
49311;BME280;35177;45.900;5.946;2023-07-29T07:05:58;97372.31;;;22.18;66.39
49311;BME280;35177;45.900;5.946;2023-07-29T07:08:24;97378.41;;;22.12;66.85
49311;BME280;35177;45.900;5.946;2023-07-29T07:10:49;97376.78;;;22.03;66.98
49311;BME280;35177;45.900;5.946;2023-07-29T07:13:14;97382.47;;;22.08;66.92
49311;BME280;35177;45.900;5.946;2023-07-29T07:15:40;97392.59;;;22.06;66.83
49311;BME280;35177;45.900;5.946;2023-07-29T07:18:05;97393.31;;;22.00;66.56
49311;BME280;35177;45.900;5.946;2023-07-29T07:20:31;97406.28;;;21.96;67.64
49311;BME280;35177;45.900;5.946;2023-07-29T07:22:56;97409.00;;;21.96;67.70
49311;BME280;35177;45.900;5.946;2023-07-29T07:25:22;97418.06;;;21.95;67.51
49311;BME280;35177;45.900;5.946;2023-07-29T07:27:47;97412.22;;;21.92;66.67
49311;BME280;35177;45.900;5.946;2023-07-29T07:30:14;97417.94;;;21.89;66.50
49311;BME280;35177;45.900;5.946;2023-07-29T07:32:39;97411.91;;;21.87;67.66
49311;BME280;35177;45.900;5.946;2023-07-29T07:35:05;97416.13;;;21.81;68.66
49311;BME280;35177;45.900;5.946;2023-07-29T07:37:30;97418.63;;;21.83;68.40
49311;BME280;35177;45.900;5.946;2023-07-29T07:39:56;97415.75;;;21.92;70.65
49311;BME280;35177;45.900;5.946;2023-07-29T07:42:21;97424.81;;;21.99;70.27
49311;BME280;35177;45.900;5.946;2023-07-29T07:44:47;97434.41;;;22.02;70.24
49311;BME280;35177;45.900;5.946;2023-07-29T07:47:12;97430.50;;;22.04;69.51
49311;BME280;35177;45.900;5.946;2023-07-29T07:49:37;97437.88;;;22.10;68.99
49311;BME280;35177;45.900;5.946;2023-07-29T07:52:03;97443.47;;;22.09;67.77
49311;BME280;35177;45.900;5.946;2023-07-29T07:54:29;97437.03;;;22.10;68.79
49311;BME280;35177;45.900;5.946;2023-07-29T07:56:54;97432.38;;;22.04;70.31
49311;BME280;35177;45.900;5.946;2023-07-29T07:59:19;97432.53;;;22.02;70.42
49311;BME280;35177;45.900;5.946;2023-07-29T08:01:45;97430.72;;;21.95;70.75
49311;BME280;35177;45.900;5.946;2023-07-29T08:04:10;97419.94;;;21.95;69.47
49311;BME280;35177;45.900;5.946;2023-07-29T08:06:36;97417.19;;;22.03;69.20
49311;BME280;35177;45.900;5.946;2023-07-29T08:09:02;97411.28;;;22.07;67.83
49311;BME280;35177;45.900;5.946;2023-07-29T08:11:27;97415.81;;;22.07;67.51
49311;BME280;35177;45.900;5.946;2023-07-29T08:13:53;97414.81;;;22.08;67.85
49311;BME280;35177;45.900;5.946;2023-07-29T08:16:18;97419.34;;;22.07;68.07
49311;BME280;35177;45.900;5.946;2023-07-29T08:18:43;97411.50;;;21.98;69.05
49311;BME280;35177;45.900;5.946;2023-07-29T08:21:09;97411.88;;;21.95;69.17
49311;BME280;35177;45.900;5.946;2023-07-29T08:23:35;97412.22;;;21.92;68.71
49311;BME280;35177;45.900;5.946;2023-07-29T08:26:03;97415.53;;;22.02;69.83
49311;BME280;35177;45.900;5.946;2023-07-29T08:28:34;97416.41;;;21.94;69.25
49311;BME280;35177;45.900;5.946;2023-07-29T08:31:00;97412.69;;;21.95;70.36
49311;BME280;35177;45.900;5.946;2023-07-29T08:33:26;97420.97;;;21.94;71.90
49311;BME280;35177;45.900;5.946;2023-07-29T08:35:52;97415.25;;;21.89;70.27
49311;BME280;35177;45.900;5.946;2023-07-29T08:38:18;97418.06;;;21.95;68.41
49311;BME280;35177;45.900;5.946;2023-07-29T08:40:54;97418.25;;;21.94;67.92
49311;BME280;35177;45.900;5.946;2023-07-29T08:43:25;97424.16;;;21.97;68.81
49311;BME280;35177;45.900;5.946;2023-07-29T08:45:54;97426.34;;;21.94;68.13
49311;BME280;35177;45.900;5.946;2023-07-29T08:48:23;97420.75;;;21.95;67.56
49311;BME280;35177;45.900;5.946;2023-07-29T08:50:52;97422.66;;;21.95;67.09
49311;BME280;35177;45.900;5.946;2023-07-29T08:53:19;97417.56;;;22.00;67.07
49311;BME280;35177;45.900;5.946;2023-07-29T08:55:44;97415.81;;;22.07;67.63
49311;BME280;35177;45.900;5.946;2023-07-29T08:58:10;97422.56;;;22.11;68.12
49311;BME280;35177;45.900;5.946;2023-07-29T09:00:37;97415.13;;;22.13;66.67
49311;BME280;35177;45.900;5.946;2023-07-29T09:03:02;97410.91;;;22.19;67.23
49311;BME280;35177;45.900;5.946;2023-07-29T09:05:33;97406.94;;;22.29;65.92
49311;BME280;35177;45.900;5.946;2023-07-29T09:08:02;97403.41;;;22.51;65.46
49311;BME280;35177;45.900;5.946;2023-07-29T09:10:28;97402.00;;;22.63;65.58
49311;BME280;35177;45.900;5.946;2023-07-29T09:12:54;97408.22;;;22.64;64.63
49311;BME280;35177;45.900;5.946;2023-07-29T09:15:30;97404.09;;;22.76;65.14
49311;BME280;35177;45.900;5.946;2023-07-29T09:17:57;97406.88;;;22.83;65.57
49311;BME280;35177;45.900;5.946;2023-07-29T09:20:28;97403.19;;;22.84;62.92
49311;BME280;35177;45.900;5.946;2023-07-29T09:22:55;97406.53;;;22.86;62.45
49311;BME280;35177;45.900;5.946;2023-07-29T09:25:26;97406.38;;;23.02;63.09
49311;BME280;35177;45.900;5.946;2023-07-29T09:27:52;97403.59;;;23.10;62.52
49311;BME280;35177;45.900;5.946;2023-07-29T09:30:18;97413.41;;;23.25;61.39
49311;BME280;35177;45.900;5.946;2023-07-29T09:32:43;97414.75;;;23.44;61.90
49311;BME280;35177;45.900;5.946;2023-07-29T09:35:13;97411.84;;;23.45;60.83
49311;BME280;35177;45.900;5.946;2023-07-29T09:37:38;97414.91;;;23.42;60.11
49311;BME280;35177;45.900;5.946;2023-07-29T09:40:06;97409.47;;;23.28;60.63
49311;BME280;35177;45.900;5.946;2023-07-29T09:42:32;97420.28;;;23.13;61.90
49311;BME280;35177;45.900;5.946;2023-07-29T09:44:57;97417.94;;;23.10;62.29
49311;BME280;35177;45.900;5.946;2023-07-29T09:47:24;97422.56;;;23.02;62.21
49311;BME280;35177;45.900;5.946;2023-07-29T09:49:50;97429.09;;;23.07;63.03
49311;BME280;35177;45.900;5.946;2023-07-29T09:52:20;97425.28;;;23.02;63.26
49311;BME280;35177;45.900;5.946;2023-07-29T09:54:47;97431.78;;;23.07;61.90
49311;BME280;35177;45.900;5.946;2023-07-29T09:57:17;97432.28;;;23.11;62.43
49311;BME280;35177;45.900;5.946;2023-07-29T09:59:43;97430.56;;;23.10;62.54
49311;BME280;35177;45.900;5.946;2023-07-29T10:02:13;97442.97;;;23.04;63.01
49311;BME280;35177;45.900;5.946;2023-07-29T10:04:43;97445.81;;;23.03;62.67
49311;BME280;35177;45.900;5.946;2023-07-29T10:07:11;97450.56;;;23.01;63.11
49311;BME280;35177;45.900;5.946;2023-07-29T10:09:38;97451.97;;;22.97;63.12
49311;BME280;35177;45.900;5.946;2023-07-29T10:12:05;97456.06;;;22.93;63.43
49311;BME280;35177;45.900;5.946;2023-07-29T10:14:31;97463.50;;;22.91;64.11
49311;BME280;35177;45.900;5.946;2023-07-29T10:16:57;97455.47;;;22.83;65.59
49311;BME280;35177;45.900;5.946;2023-07-29T10:19:25;97467.22;;;22.90;62.68
49311;BME280;35177;45.900;5.946;2023-07-29T10:21:51;97463.34;;;22.84;66.79
49311;BME280;35177;45.900;5.946;2023-07-29T10:24:19;97465.00;;;22.70;62.01
49311;BME280;35177;45.900;5.946;2023-07-29T10:26:49;97474.25;;;22.45;64.54
49311;BME280;35177;45.900;5.946;2023-07-29T10:29:19;97483.88;;;22.40;63.33
49311;BME280;35177;45.900;5.946;2023-07-29T10:31:45;97476.06;;;22.22;64.48
49311;BME280;35177;45.900;5.946;2023-07-29T10:34:12;97472.47;;;21.99;67.86
49311;BME280;35177;45.900;5.946;2023-07-29T10:36:39;97475.81;;;22.01;67.67
49311;BME280;35177;45.900;5.946;2023-07-29T10:39:07;97475.28;;;22.13;68.82
49311;BME280;35177;45.900;5.946;2023-07-29T10:42:02;97471.66;;;22.21;64.28
49311;BME280;35177;45.900;5.946;2023-07-29T10:44:56;97471.75;;;22.05;70.03
49311;BME280;35177;45.900;5.946;2023-07-29T10:47:24;97468.84;;;22.14;64.13
49311;BME280;35177;45.900;5.946;2023-07-29T10:49:53;97462.59;;;22.22;63.15
49311;BME280;35177;45.900;5.946;2023-07-29T10:55:00;97473.94;;;21.55;72.52
49311;BME280;35177;45.900;5.946;2023-07-29T10:57:39;97476.91;;;21.68;72.35
49311;BME280;35177;45.900;5.946;2023-07-29T11:00:07;97476.31;;;21.50;74.03
49311;BME280;35177;45.900;5.946;2023-07-29T11:02:37;97486.41;;;21.48;73.43
49311;BME280;35177;45.900;5.946;2023-07-29T11:05:08;97480.72;;;21.34;76.68
49311;BME280;35177;45.900;5.946;2023-07-29T11:07:45;97480.72;;;21.26;79.21
49311;BME280;35177;45.900;5.946;2023-07-29T11:10:11;97463.94;;;21.16;78.77
49311;BME280;35177;45.900;5.946;2023-07-29T11:12:45;97450.13;;;21.19;79.67
49311;BME280;35177;45.900;5.946;2023-07-29T11:17:55;97461.91;;;20.78;80.90
49311;BME280;35177;45.900;5.946;2023-07-29T11:20:25;97460.88;;;20.55;80.65
49311;BME280;35177;45.900;5.946;2023-07-29T11:22:52;97459.00;;;20.47;80.52
49311;BME280;35177;45.900;5.946;2023-07-29T11:25:18;97475.34;;;20.62;81.09
49311;BME280;35177;45.900;5.946;2023-07-29T11:27:44;97491.47;;;20.62;81.73
49311;BME280;35177;45.900;5.946;2023-07-29T11:30:12;97506.59;;;20.71;81.71
49311;BME280;35177;45.900;5.946;2023-07-29T11:32:39;97506.28;;;20.74;82.29
49311;BME280;35177;45.900;5.946;2023-07-29T11:35:07;97508.47;;;20.78;82.13
49311;BME280;35177;45.900;5.946;2023-07-29T11:37:37;97498.53;;;20.87;80.65
49311;BME280;35177;45.900;5.946;2023-07-29T11:40:04;97486.94;;;20.87;80.51
49311;BME280;35177;45.900;5.946;2023-07-29T11:42:34;97472.97;;;20.75;82.35
49311;BME280;35177;45.900;5.946;2023-07-29T11:45:00;97465.28;;;20.88;81.86
49311;BME280;35177;45.900;5.946;2023-07-29T11:47:26;97458.38;;;21.10;82.73
49311;BME280;35177;45.900;5.946;2023-07-29T11:49:51;97465.41;;;21.27;81.85
49311;BME280;35177;45.900;5.946;2023-07-29T11:52:18;97468.97;;;21.27;82.80
49311;BME280;35177;45.900;5.946;2023-07-29T11:54:46;97471.28;;;21.38;80.54
49311;BME280;35177;45.900;5.946;2023-07-29T11:57:12;97462.69;;;21.51;79.66
49311;BME280;35177;45.900;5.946;2023-07-29T11:59:39;97474.28;;;21.60;79.26
49311;BME280;35177;45.900;5.946;2023-07-29T12:02:10;97469.53;;;21.62;78.89
49311;BME280;35177;45.900;5.946;2023-07-29T12:04:37;97464.34;;;21.60;78.35
49311;BME280;35177;45.900;5.946;2023-07-29T12:07:03;97459.16;;;21.51;77.91
49311;BME280;35177;45.900;5.946;2023-07-29T12:09:29;97454.47;;;21.36;79.91
49311;BME280;35177;45.900;5.946;2023-07-29T12:11:56;97461.88;;;21.34;80.74
49311;BME280;35177;45.900;5.946;2023-07-29T12:14:21;97460.28;;;21.56;80.07
49311;BME280;35177;45.900;5.946;2023-07-29T12:16:50;97454.13;;;21.39;80.63
49311;BME280;35177;45.900;5.946;2023-07-29T12:19:17;97437.47;;;21.36;81.89
49311;BME280;35177;45.900;5.946;2023-07-29T12:21:43;97445.72;;;21.26;81.99
49311;BME280;35177;45.900;5.946;2023-07-29T12:24:09;97456.31;;;21.36;81.57
49311;BME280;35177;45.900;5.946;2023-07-29T12:26:36;97468.59;;;21.30;80.55
49311;BME280;35177;45.900;5.946;2023-07-29T12:29:14;97479.38;;;21.30;80.85
49311;BME280;35177;45.900;5.946;2023-07-29T12:31:40;97476.38;;;21.25;80.20
49311;BME280;35177;45.900;5.946;2023-07-29T12:34:06;97484.75;;;21.38;80.21
49311;BME280;35177;45.900;5.946;2023-07-29T12:36:46;97490.66;;;21.26;80.89
49311;BME280;35177;45.900;5.946;2023-07-29T12:39:25;97487.47;;;21.06;83.64
49311;BME280;35177;45.900;5.946;2023-07-29T12:41:52;97461.22;;;20.92;85.43
49311;BME280;35177;45.900;5.946;2023-07-29T12:44:18;97471.31;;;20.82;84.99
49311;BME280;35177;45.900;5.946;2023-07-29T12:46:44;97454.66;;;20.70;83.98
49311;BME280;35177;45.900;5.946;2023-07-29T12:49:10;97448.44;;;20.78;86.50
49311;BME280;35177;45.900;5.946;2023-07-29T12:51:36;97442.91;;;20.88;86.56
49311;BME280;35177;45.900;5.946;2023-07-29T12:54:03;97441.72;;;20.74;86.79
49311;BME280;35177;45.900;5.946;2023-07-29T12:56:29;97435.19;;;20.76;88.91
49311;BME280;35177;45.900;5.946;2023-07-29T12:58:56;97417.00;;;20.95;87.26
49311;BME280;35177;45.900;5.946;2023-07-29T13:01:21;97405.22;;;21.28;86.68
49311;BME280;35177;45.900;5.946;2023-07-29T13:03:50;97401.97;;;21.40;84.95
49311;BME280;35177;45.900;5.946;2023-07-29T13:06:16;97420.09;;;21.55;85.74